Alta Loma, California
Current Conditions -  °F | °C
As of 10:53 PM on Wednesday 22 Oct 2014 (Local Time) from KONT Reporting Station
Scattered Clouds Scattered Clouds  
Wind Chill: 68°   Ceiling: Unl
Heat Index: 68°   Visibility: 10mi
Dew Point: 56°   Wind: 0mph
Humidity: 65%   Direction: NA
Pressure: 29.98"   Gusts: NA
Location:  34.12°N, 117.6°W
Report Text: KONT 230553Z 00000KT 10SM SCT250 20/13 A2998 RMK AO2 SLP141 T02000133 10300 20200 51014
Loading
Personal Weather Stations






























Interactive Weather Map
Tropical Storm Tracking
New forecast layout! Learn more

10-Day Weather Forecast

Advertisements
Track Severe Weather on mobile